createdAt,value
2023-09-04T00:01:51.925Z,13.43
2023-09-04T00:04:18.152Z,13.35
2023-09-04T00:06:44.356Z,13.33
2023-09-04T00:09:10.515Z,13.19
2023-09-04T00:11:36.692Z,13.11
2023-09-04T00:14:02.921Z,13.15
2023-09-04T00:16:29.100Z,13.23
2023-09-04T00:18:55.347Z,13.57
2023-09-04T00:21:21.521Z,13.80
2023-09-04T00:23:47.685Z,13.53
2023-09-04T00:26:13.865Z,13.43
2023-09-04T00:28:40.022Z,13.31
2023-09-04T00:31:06.208Z,13.24
2023-09-04T00:33:32.379Z,13.18
2023-09-04T00:35:58.548Z,13.37
2023-09-04T00:38:24.956Z,13.42
2023-09-04T00:40:51.240Z,13.30
2023-09-04T00:43:17.396Z,13.20
2023-09-04T00:45:43.589Z,13.11
2023-09-04T00:48:09.788Z,13.04
2023-09-04T00:50:35.979Z,12.86
2023-09-04T00:53:02.159Z,12.83
2023-09-04T00:55:28.411Z,12.87
2023-09-04T00:57:54.592Z,12.93
2023-09-04T01:00:20.768Z,12.94
2023-09-04T01:02:47.074Z,13.09
2023-09-04T01:05:13.327Z,13.01
2023-09-04T01:07:39.473Z,12.96
2023-09-04T01:10:05.654Z,12.96
2023-09-04T01:12:31.808Z,12.74
2023-09-04T01:14:57.980Z,12.87
2023-09-04T01:17:24.134Z,12.98
2023-09-04T01:19:50.286Z,13.10
2023-09-04T01:22:16.441Z,12.94
2023-09-04T01:24:42.601Z,12.78
2023-09-04T01:27:08.766Z,12.93
2023-09-04T01:29:34.925Z,12.83
2023-09-04T01:32:01.101Z,12.81
2023-09-04T01:34:27.273Z,12.84
2023-09-04T01:36:53.468Z,12.88
2023-09-04T01:39:19.639Z,12.79
2023-09-04T01:41:45.802Z,12.68
2023-09-04T01:44:11.954Z,12.71
2023-09-04T01:46:38.157Z,12.50
2023-09-04T01:49:04.358Z,12.44
2023-09-04T01:51:30.535Z,12.48
2023-09-04T01:53:56.705Z,12.67
2023-09-04T01:56:22.974Z,12.75
2023-09-04T01:58:49.139Z,12.69
2023-09-04T02:01:15.356Z,12.62
2023-09-04T02:03:41.693Z,12.54
2023-09-04T02:06:07.922Z,12.45
2023-09-04T02:08:34.082Z,12.57
2023-09-04T02:11:00.434Z,12.43
2023-09-04T02:13:26.605Z,12.45
2023-09-04T02:15:52.816Z,12.51
2023-09-04T02:18:19.041Z,12.56
2023-09-04T02:20:45.224Z,12.64
2023-09-04T02:23:11.405Z,12.59
2023-09-04T02:25:37.587Z,12.61
2023-09-04T02:28:03.743Z,12.46
2023-09-04T02:30:29.914Z,12.30
2023-09-04T02:32:56.088Z,12.24
2023-09-04T02:35:22.290Z,12.19
2023-09-04T02:37:48.437Z,12.29
2023-09-04T02:40:14.594Z,12.25
2023-09-04T02:42:40.766Z,12.23
2023-09-04T02:45:06.924Z,12.14
2023-09-04T02:47:33.080Z,12.03
2023-09-04T02:49:59.250Z,12.08
2023-09-04T02:52:25.430Z,12.05
2023-09-04T02:54:51.632Z,12.14
2023-09-04T02:57:17.799Z,12.29
2023-09-04T02:59:43.969Z,12.22
2023-09-04T03:02:10.148Z,12.04
2023-09-04T03:04:36.336Z,12.14
2023-09-04T03:07:02.532Z,12.41
2023-09-04T03:09:28.692Z,12.43
2023-09-04T03:11:54.858Z,12.51
2023-09-04T03:14:21.048Z,12.47
2023-09-04T03:16:47.210Z,12.34
2023-09-04T03:19:13.389Z,12.32
2023-09-04T03:21:39.555Z,12.28
2023-09-04T03:24:05.746Z,12.24
2023-09-04T03:26:31.890Z,12.22
2023-09-04T03:28:58.037Z,12.39
2023-09-04T03:31:24.263Z,12.37
2023-09-04T03:33:50.473Z,12.49
2023-09-04T03:36:16.634Z,12.63
2023-09-04T03:38:42.815Z,12.46
2023-09-04T03:41:08.969Z,12.34
2023-09-04T03:43:35.168Z,12.33
2023-09-04T03:46:01.392Z,12.42
2023-09-04T03:48:27.835Z,12.35
2023-09-04T03:50:54.430Z,12.34
2023-09-04T03:53:20.583Z,12.49
2023-09-04T03:55:46.864Z,12.44
2023-09-04T03:58:13.051Z,12.36
2023-09-04T04:00:39.269Z,12.40
2023-09-04T04:03:05.614Z,12.62
2023-09-04T04:05:31.842Z,12.60
2023-09-04T04:07:58.012Z,12.53
2023-09-04T04:10:24.171Z,12.56
2023-09-04T04:12:50.351Z,12.56
2023-09-04T04:15:16.518Z,12.38
2023-09-04T04:17:42.727Z,12.32
2023-09-04T04:20:08.911Z,12.38
2023-09-04T04:22:35.072Z,12.32
2023-09-04T04:25:01.240Z,12.18
2023-09-04T04:27:27.391Z,12.00
2023-09-04T04:29:53.561Z,12.09
2023-09-04T04:32:19.916Z,12.10
2023-09-04T04:34:46.134Z,12.28
2023-09-04T04:37:12.291Z,12.41
2023-09-04T04:39:38.459Z,12.35
2023-09-04T04:42:04.627Z,12.21
2023-09-04T04:44:30.783Z,12.05
2023-09-04T04:46:56.934Z,12.22
2023-09-04T04:49:23.094Z,12.05
2023-09-04T04:51:49.242Z,11.91
2023-09-04T04:54:15.421Z,12.00
2023-09-04T04:56:41.581Z,11.92
2023-09-04T04:59:07.729Z,11.75
2023-09-04T05:01:33.908Z,11.77
2023-09-04T05:04:00.125Z,11.92
2023-09-04T05:06:26.304Z,12.18
2023-09-04T05:08:52.461Z,12.37
2023-09-04T05:11:18.618Z,12.49
2023-09-04T05:13:44.803Z,12.46
2023-09-04T05:16:11.041Z,12.49
2023-09-04T05:18:37.370Z,12.40
2023-09-04T05:21:03.969Z,12.38
2023-09-04T05:23:30.129Z,12.35
2023-09-04T05:25:56.416Z,12.34
2023-09-04T05:28:22.823Z,12.19
2023-09-04T05:30:49.127Z,12.25
2023-09-04T05:33:15.299Z,12.32
2023-09-04T05:35:41.474Z,12.45
2023-09-04T05:38:07.657Z,12.59
2023-09-04T05:40:33.800Z,12.52
2023-09-04T05:42:59.938Z,12.61
2023-09-04T05:45:26.115Z,12.73
2023-09-04T05:47:52.370Z,12.67
2023-09-04T05:50:18.554Z,12.87
2023-09-04T05:52:44.732Z,12.73
2023-09-04T05:55:10.886Z,12.68
2023-09-04T05:57:37.032Z,12.81
2023-09-04T06:00:03.194Z,12.95
2023-09-04T06:02:29.450Z,12.89
2023-09-04T06:04:55.665Z,12.88
2023-09-04T06:07:21.974Z,12.77
2023-09-04T06:09:48.179Z,12.69
2023-09-04T06:12:14.388Z,12.73
2023-09-04T06:14:40.555Z,12.89
2023-09-04T06:17:06.698Z,13.07
2023-09-04T06:19:32.859Z,13.09
2023-09-04T06:21:59.018Z,13.06
2023-09-04T06:24:25.186Z,13.20
2023-09-04T06:26:51.353Z,13.27
2023-09-04T06:29:17.508Z,13.38
2023-09-04T06:31:43.692Z,13.47
2023-09-04T06:34:09.852Z,13.54
2023-09-04T06:36:36.020Z,13.85
2023-09-04T06:39:02.182Z,14.10
2023-09-04T06:41:28.338Z,14.41
2023-09-04T06:43:54.486Z,14.70
2023-09-04T06:46:20.737Z,14.56
2023-09-04T06:48:46.915Z,14.44
2023-09-04T06:51:13.064Z,14.44
2023-09-04T06:53:39.300Z,14.33
2023-09-04T06:56:05.473Z,14.59
2023-09-04T06:58:32.689Z,14.73
2023-09-04T07:00:58.866Z,15.01
2023-09-04T07:03:25.388Z,15.17
2023-09-04T07:05:51.797Z,15.49
2023-09-04T07:08:18.000Z,15.78
2023-09-04T07:10:44.169Z,15.96
2023-09-04T07:13:10.335Z,16.10
2023-09-04T07:15:36.503Z,16.19
2023-09-04T07:18:02.720Z,16.21
2023-09-04T07:20:29.085Z,16.42
2023-09-04T07:23:03.361Z,16.65
2023-09-04T07:25:40.787Z,16.97
2023-09-04T07:28:06.947Z,17.05
2023-09-04T07:30:33.123Z,17.31
2023-09-04T07:32:59.363Z,17.65
2023-09-04T07:35:25.549Z,17.88
2023-09-04T07:37:51.694Z,18.11
2023-09-04T07:40:17.850Z,18.37
2023-09-04T07:42:44.010Z,18.61
2023-09-04T07:45:10.191Z,18.91
2023-09-04T07:47:36.391Z,19.13
2023-09-04T07:50:02.634Z,19.31
2023-09-04T07:52:28.822Z,19.49
2023-09-04T07:54:54.982Z,19.77
2023-09-04T07:57:21.126Z,19.95
2023-09-04T07:59:47.304Z,20.02
2023-09-04T08:02:14.976Z,20.23
2023-09-04T08:04:41.199Z,20.37
2023-09-04T08:07:07.406Z,20.43
2023-09-04T08:09:33.610Z,20.59
2023-09-04T08:11:59.754Z,20.47
2023-09-04T08:14:25.979Z,19.78
2023-09-04T08:16:52.161Z,19.90
2023-09-04T08:19:18.343Z,19.65
2023-09-04T08:21:44.545Z,19.48
2023-09-04T08:24:10.822Z,19.72
2023-09-04T08:26:36.979Z,19.93
2023-09-04T08:29:03.146Z,20.17
2023-09-04T08:31:29.345Z,20.34
2023-09-04T08:33:55.537Z,20.23
2023-09-04T08:36:21.721Z,20.10
2023-09-04T08:38:47.909Z,19.66
2023-09-04T08:41:14.204Z,19.40
2023-09-04T08:43:40.366Z,19.14
2023-09-04T08:46:07.578Z,19.12
2023-09-04T08:48:33.963Z,18.84
2023-09-04T08:51:00.182Z,18.67
2023-09-04T08:53:26.720Z,19.25
2023-09-04T08:55:52.906Z,19.37
2023-09-04T08:58:19.328Z,19.82
2023-09-04T09:00:45.505Z,19.99
2023-09-04T09:03:17.004Z,20.04
2023-09-04T09:05:43.606Z,20.37
2023-09-04T09:08:09.766Z,20.56
2023-09-04T09:10:35.913Z,20.63
2023-09-04T09:13:02.121Z,20.61
2023-09-04T09:15:28.333Z,20.58
2023-09-04T09:17:54.664Z,20.60
2023-09-04T09:20:21.168Z,20.66
2023-09-04T09:22:47.320Z,20.58
2023-09-04T09:25:13.510Z,20.71
2023-09-04T09:27:39.688Z,20.65
2023-09-04T09:30:05.844Z,20.97
2023-09-04T09:32:32.073Z,21.11
2023-09-04T09:34:58.334Z,21.10
2023-09-04T09:37:24.506Z,21.16
2023-09-04T09:39:50.650Z,21.29
2023-09-04T09:42:16.839Z,21.51
2023-09-04T09:44:43.010Z,21.79
2023-09-04T09:47:09.186Z,21.94
2023-09-04T09:49:35.334Z,21.86
2023-09-04T09:52:01.488Z,21.93
2023-09-04T09:54:27.656Z,21.99
2023-09-04T09:56:53.800Z,21.95
2023-09-04T09:59:19.958Z,21.87
2023-09-04T10:01:46.159Z,22.07
2023-09-04T10:04:12.362Z,21.96
2023-09-04T10:06:38.558Z,22.07
2023-09-04T10:09:04.746Z,22.25
2023-09-04T10:11:30.892Z,22.38
2023-09-04T10:13:57.056Z,22.62
2023-09-04T10:16:23.221Z,22.89
2023-09-04T10:18:49.381Z,23.00
2023-09-04T10:21:15.539Z,23.17
2023-09-04T10:23:41.717Z,23.07
2023-09-04T10:26:07.924Z,22.99
2023-09-04T10:28:43.235Z,23.09
2023-09-04T10:31:11.217Z,22.22
2023-09-04T10:33:37.410Z,22.45
2023-09-04T10:36:03.650Z,22.21
2023-09-04T10:38:29.826Z,22.21
2023-09-04T10:40:56.010Z,23.07
2023-09-04T10:43:22.388Z,23.08
2023-09-04T10:45:48.959Z,22.30
2023-09-04T10:48:15.148Z,22.58
2023-09-04T10:50:41.330Z,22.24
2023-09-04T10:53:07.489Z,21.77
2023-09-04T10:55:33.647Z,21.66
2023-09-04T10:57:59.839Z,22.07
2023-09-04T11:00:26.022Z,22.13
2023-09-04T11:02:52.212Z,22.27
2023-09-04T11:05:18.393Z,22.13
2023-09-04T11:07:44.550Z,22.12
2023-09-04T11:10:10.725Z,22.36
2023-09-04T11:12:36.879Z,22.42
2023-09-04T11:15:03.088Z,22.27
2023-09-04T11:17:29.301Z,22.50
2023-09-04T11:19:55.483Z,22.58
2023-09-04T11:22:21.664Z,22.17
2023-09-04T11:24:47.821Z,22.30
2023-09-04T11:27:13.984Z,22.36
2023-09-04T11:29:40.153Z,22.24
2023-09-04T11:33:21.852Z,22.28
2023-09-04T11:34:52.459Z,22.25
2023-09-04T11:37:18.636Z,22.35
2023-09-04T11:39:45.316Z,22.57
2023-09-04T11:42:11.606Z,22.59
2023-09-04T11:44:37.765Z,22.54
2023-09-04T11:47:03.969Z,22.61
2023-09-04T11:49:30.124Z,22.59
2023-09-04T11:51:56.272Z,22.38
2023-09-04T11:54:22.439Z,22.36
2023-09-04T11:56:48.611Z,22.64
2023-09-04T11:59:14.782Z,22.85
2023-09-04T12:01:40.956Z,22.74
2023-09-04T12:04:07.156Z,22.66
2023-09-04T12:06:33.363Z,22.75
2023-09-04T12:08:59.540Z,22.95
2023-09-04T12:11:25.705Z,22.88
2023-09-04T12:13:51.852Z,22.78
2023-09-04T12:16:18.091Z,22.91
2023-09-04T12:18:44.361Z,23.04
2023-09-04T12:21:10.899Z,23.10
2023-09-04T12:23:37.538Z,23.05
2023-09-04T12:26:03.703Z,23.33
2023-09-04T12:28:30.002Z,23.78
2023-09-04T12:30:56.152Z,23.17
2023-09-04T12:33:22.307Z,23.69
2023-09-04T12:35:48.480Z,23.96
2023-09-04T12:38:14.647Z,23.74
2023-09-04T12:40:40.899Z,23.63
2023-09-04T12:43:07.070Z,23.52
2023-09-04T12:45:33.269Z,23.68
2023-09-04T12:47:59.499Z,23.68
2023-09-04T12:50:25.680Z,23.78
2023-09-04T12:52:51.850Z,23.89
2023-09-04T12:55:18.004Z,24.17
2023-09-04T12:57:44.169Z,24.21
2023-09-04T13:00:10.324Z,24.07
2023-09-04T13:02:36.658Z,24.64
2023-09-04T13:05:02.882Z,24.63
2023-09-04T13:07:29.058Z,24.83
2023-09-04T13:09:55.217Z,24.41
2023-09-04T13:12:21.380Z,24.03
2023-09-04T13:14:47.551Z,24.42
2023-09-04T13:17:13.705Z,24.72
2023-09-04T13:19:39.909Z,24.48
2023-09-04T13:22:06.121Z,24.19
2023-09-04T13:24:32.365Z,24.25
2023-09-04T13:26:58.554Z,24.29
2023-09-04T13:29:24.770Z,24.57
2023-09-04T13:31:50.926Z,24.92
2023-09-04T13:34:17.118Z,24.69
2023-09-04T13:36:43.299Z,24.94
2023-09-04T13:39:09.524Z,25.16
2023-09-04T13:41:35.705Z,24.84
2023-09-04T13:44:01.873Z,25.00
2023-09-04T13:46:28.059Z,24.98
2023-09-04T13:48:54.260Z,24.87
2023-09-04T13:51:20.422Z,24.86
2023-09-04T13:53:46.600Z,25.00
2023-09-04T13:56:12.795Z,25.28
2023-09-04T13:58:38.969Z,25.34
2023-09-04T14:01:05.160Z,25.33
2023-09-04T14:03:31.303Z,24.85
2023-09-04T14:05:57.483Z,24.91
2023-09-04T14:08:23.652Z,24.83
2023-09-04T14:10:49.823Z,25.24
2023-09-04T14:13:15.992Z,25.60
2023-09-04T14:15:42.209Z,25.05
2023-09-04T14:18:08.434Z,24.87
2023-09-04T14:20:34.673Z,25.07
2023-09-04T14:23:00.843Z,25.36
2023-09-04T14:25:27.027Z,24.80
2023-09-04T14:27:53.188Z,24.77
2023-09-04T14:30:19.364Z,25.06
2023-09-04T14:32:45.606Z,25.22
2023-09-04T14:35:11.807Z,25.22
2023-09-04T14:37:37.983Z,25.22
2023-09-04T14:40:04.207Z,25.08
2023-09-04T14:42:30.493Z,24.92
2023-09-04T14:44:56.641Z,24.88
2023-09-04T14:47:22.821Z,25.22
2023-09-04T14:49:49.000Z,25.65
2023-09-04T14:52:15.169Z,26.05
2023-09-04T14:54:41.331Z,26.06
2023-09-04T14:57:07.516Z,25.88
2023-09-04T14:59:33.688Z,25.99
2023-09-04T15:01:59.953Z,25.88
2023-09-04T15:04:26.187Z,26.17
2023-09-04T15:06:52.364Z,26.22
2023-09-04T15:09:18.632Z,25.96
2023-09-04T15:11:44.805Z,26.05
2023-09-04T15:14:10.970Z,26.05
2023-09-04T15:16:37.164Z,26.30
2023-09-04T15:19:03.380Z,26.39
2023-09-04T15:21:29.546Z,26.31
2023-09-04T15:23:55.692Z,26.24
2023-09-04T15:26:21.856Z,26.36
2023-09-04T15:28:48.016Z,26.25
2023-09-04T15:31:14.235Z,26.20
2023-09-04T15:33:40.435Z,26.21
2023-09-04T15:36:06.580Z,26.13
2023-09-04T15:38:33.265Z,25.79
2023-09-04T15:40:59.608Z,25.41
2023-09-04T15:43:25.767Z,25.33
2023-09-04T15:45:52.021Z,25.20
2023-09-04T15:48:18.303Z,25.04
2023-09-04T15:50:44.526Z,24.91
2023-09-04T15:53:10.737Z,24.13
2023-09-04T15:55:36.890Z,24.00
2023-09-04T15:58:03.063Z,23.95
2023-09-04T16:00:29.308Z,23.62
2023-09-04T16:02:55.573Z,23.47
2023-09-04T16:05:21.849Z,23.60
2023-09-04T16:07:48.018Z,23.53
2023-09-04T16:10:14.216Z,23.54
2023-09-04T16:12:40.382Z,23.65
2023-09-04T16:15:06.565Z,23.38
2023-09-04T16:17:32.746Z,23.35
2023-09-04T16:19:58.939Z,23.05
2023-09-04T16:22:25.131Z,23.09
2023-09-04T16:24:51.281Z,22.76
2023-09-04T16:27:17.452Z,22.48
2023-09-04T16:29:43.622Z,22.23
2023-09-04T16:32:09.834Z,22.08
2023-09-04T16:34:36.014Z,21.90
2023-09-04T16:37:02.185Z,21.78
2023-09-04T16:39:28.339Z,21.51
2023-09-04T16:41:54.497Z,21.27
2023-09-04T16:44:20.663Z,20.96
2023-09-04T16:46:46.867Z,20.80
2023-09-04T16:49:13.056Z,20.65
2023-09-04T16:51:50.058Z,20.54
2023-09-04T16:54:20.426Z,20.49
2023-09-04T16:56:46.584Z,20.49
2023-09-04T16:59:12.732Z,20.36
2023-09-04T17:01:38.951Z,20.20
2023-09-04T17:04:05.143Z,20.27
2023-09-04T17:06:31.307Z,20.36
2023-09-04T17:08:57.479Z,20.34
2023-09-04T17:11:23.624Z,20.13
2023-09-04T17:13:49.791Z,20.00
2023-09-04T17:16:15.990Z,20.01
2023-09-04T17:18:42.212Z,19.75
2023-09-04T17:21:08.485Z,19.58
2023-09-04T17:23:34.635Z,19.44
2023-09-04T17:26:00.788Z,19.35
2023-09-04T17:28:27.125Z,19.23
2023-09-04T17:30:53.596Z,19.03
2023-09-04T17:33:19.753Z,19.04
2023-09-04T17:35:45.907Z,19.09
2023-09-04T17:38:12.076Z,18.80
2023-09-04T17:40:38.220Z,18.84
2023-09-04T17:43:04.398Z,18.65
2023-09-04T17:45:30.603Z,18.77
2023-09-04T17:47:56.845Z,18.76
2023-09-04T17:50:23.061Z,18.72
2023-09-04T17:52:49.226Z,18.52
2023-09-04T17:55:15.410Z,18.49
2023-09-04T17:57:41.580Z,18.50
2023-09-04T18:00:07.805Z,18.47
2023-09-04T18:02:34.048Z,18.37
2023-09-04T18:05:00.310Z,18.24
2023-09-04T18:07:26.505Z,18.30
2023-09-04T18:09:52.674Z,18.21
2023-09-04T18:12:18.840Z,18.08
2023-09-04T18:14:45.003Z,17.98
2023-09-04T18:17:11.266Z,17.91
2023-09-04T18:19:37.428Z,17.91
2023-09-04T18:22:03.968Z,18.04
2023-09-04T18:24:30.760Z,17.83
2023-09-04T18:26:56.927Z,17.75
2023-09-04T18:29:23.110Z,17.81
2023-09-04T18:31:49.294Z,17.74
2023-09-04T18:34:15.473Z,17.49
2023-09-04T18:36:41.628Z,17.44
2023-09-04T18:39:07.784Z,17.35
2023-09-04T18:41:33.948Z,17.46
2023-09-04T18:44:00.151Z,17.42
2023-09-04T18:46:26.361Z,17.44
2023-09-04T18:48:52.581Z,17.41
2023-09-04T18:51:18.770Z,17.40
2023-09-04T18:53:44.942Z,17.34
2023-09-04T18:56:11.111Z,17.24
2023-09-04T18:58:37.281Z,17.06
2023-09-04T19:01:03.582Z,16.92
2023-09-04T19:03:29.808Z,17.07
2023-09-04T19:05:55.969Z,17.22
2023-09-04T19:08:22.125Z,17.01
2023-09-04T19:10:48.299Z,16.94
2023-09-04T19:13:14.472Z,16.88
2023-09-04T19:15:40.637Z,16.93
2023-09-04T19:18:06.853Z,16.93
2023-09-04T19:20:33.034Z,16.77
2023-09-04T19:23:00.900Z,16.80
2023-09-04T19:25:28.358Z,16.86
2023-09-04T19:27:54.536Z,16.70
2023-09-04T19:30:20.686Z,16.68
2023-09-04T19:32:46.856Z,16.69
2023-09-04T19:35:13.053Z,16.64
2023-09-04T19:37:39.209Z,16.70
2023-09-04T19:40:06.239Z,16.73
2023-09-04T19:42:32.580Z,16.64
2023-09-04T19:44:58.751Z,16.65
2023-09-04T19:47:24.934Z,16.70
2023-09-04T19:49:51.136Z,16.66
2023-09-04T19:52:17.286Z,16.65
2023-09-04T19:54:43.467Z,16.65
2023-09-04T19:57:09.636Z,16.64
2023-09-04T19:59:35.801Z,16.68
2023-09-04T20:02:01.984Z,16.50
2023-09-04T20:04:28.135Z,16.44
2023-09-04T20:06:54.296Z,16.51
2023-09-04T20:09:20.469Z,16.67
2023-09-04T20:11:46.630Z,16.79
2023-09-04T20:14:12.826Z,16.95
2023-09-04T20:16:38.978Z,16.97
2023-09-04T20:19:05.915Z,16.84
2023-09-04T20:21:32.743Z,16.66
2023-09-04T20:23:58.883Z,16.37
2023-09-04T20:26:29.116Z,16.38
2023-09-04T20:29:01.656Z,16.26
2023-09-04T20:31:27.885Z,16.16
2023-09-04T20:33:54.108Z,16.12
2023-09-04T20:36:20.273Z,16.16
2023-09-04T20:38:46.448Z,16.13
2023-09-04T20:41:12.630Z,16.06
2023-09-04T20:43:38.800Z,16.00
2023-09-04T20:46:04.949Z,15.79
2023-09-04T20:48:31.103Z,15.72
2023-09-04T20:50:57.282Z,15.65
2023-09-04T20:53:23.747Z,15.65
2023-09-04T20:55:50.085Z,15.39
2023-09-04T20:58:16.238Z,15.30
2023-09-04T21:00:42.445Z,15.48
2023-09-04T21:03:08.642Z,15.67
2023-09-04T21:05:34.800Z,15.85
2023-09-04T21:08:00.980Z,16.07
2023-09-04T21:10:27.139Z,15.80
2023-09-04T21:12:53.300Z,15.34
2023-09-04T21:15:19.484Z,15.38
2023-09-04T21:17:45.685Z,15.46
2023-09-04T21:20:11.880Z,15.44
2023-09-04T21:22:38.046Z,15.69
2023-09-04T21:25:04.200Z,15.57
2023-09-04T21:27:30.348Z,15.42
2023-09-04T21:29:56.496Z,15.40
2023-09-04T21:32:22.666Z,15.56
2023-09-04T21:34:48.821Z,15.45
2023-09-04T21:37:14.998Z,15.25
2023-09-04T21:39:41.159Z,15.24
2023-09-04T21:42:07.360Z,15.09
2023-09-04T21:44:33.521Z,14.91
2023-09-04T21:46:59.666Z,14.73
2023-09-04T21:49:25.851Z,14.58
2023-09-04T21:51:52.013Z,14.69
2023-09-04T21:54:18.178Z,14.92
2023-09-04T21:56:44.352Z,15.04
2023-09-04T21:59:10.614Z,15.00
2023-09-04T22:01:36.811Z,14.94
2023-09-04T22:04:03.049Z,14.72
2023-09-04T22:06:29.261Z,14.67
2023-09-04T22:08:55.420Z,14.72
2023-09-04T22:11:21.606Z,14.65
2023-09-04T22:13:47.762Z,14.69
2023-09-04T22:16:13.998Z,14.60
2023-09-04T22:18:40.254Z,14.59
2023-09-04T22:21:06.452Z,14.56
2023-09-04T22:23:32.627Z,14.67
2023-09-04T22:25:58.808Z,14.66
2023-09-04T22:28:24.991Z,14.66
2023-09-04T22:30:51.192Z,14.68
2023-09-04T22:33:17.371Z,14.49
2023-09-04T22:35:43.537Z,14.52
2023-09-04T22:38:09.687Z,14.47
2023-09-04T22:40:35.856Z,14.56
2023-09-04T22:43:02.111Z,14.58
2023-09-04T22:45:28.270Z,14.61
2023-09-04T22:47:54.487Z,14.60
2023-09-04T22:50:20.670Z,14.40
2023-09-04T22:52:59.852Z,14.25
2023-09-04T22:55:32.396Z,14.23
2023-09-04T22:57:58.577Z,14.30
2023-09-04T23:00:24.746Z,14.22
2023-09-04T23:02:51.009Z,14.20
2023-09-04T23:05:17.225Z,14.13
2023-09-04T23:07:43.414Z,13.95
2023-09-04T23:10:09.569Z,13.91
2023-09-04T23:12:35.715Z,13.96
2023-09-04T23:15:01.898Z,13.97
2023-09-04T23:17:28.069Z,14.10
2023-09-04T23:19:54.248Z,14.04
2023-09-04T23:22:20.416Z,14.25
2023-09-04T23:24:46.577Z,14.46
2023-09-04T23:27:13.017Z,14.12
2023-09-04T23:29:39.250Z,14.12
2023-09-04T23:32:05.413Z,14.13
2023-09-04T23:34:31.586Z,14.11
2023-09-04T23:36:57.748Z,14.05
2023-09-04T23:39:23.916Z,14.00
2023-09-04T23:41:50.088Z,14.07
2023-09-04T23:44:16.253Z,14.02
2023-09-04T23:46:42.412Z,14.14
2023-09-04T23:49:08.664Z,14.29
2023-09-04T23:51:34.829Z,14.45
2023-09-04T23:54:00.999Z,14.21
2023-09-04T23:56:27.173Z,14.08
2023-09-04T23:58:53.333Z,14.21
